sensor_id;sensor_type;location;lat;lon;timestamp;temperature;humidity
67893;DHT22;54688;52.376;16.744;2023-04-06T00:02:00;-2.6;70.3
67893;DHT22;54688;52.376;16.744;2023-04-06T00:05:03;-2.6;70.5
67893;DHT22;54688;52.376;16.744;2023-04-06T00:08:06;-2.6;70.7
67893;DHT22;54688;52.376;16.744;2023-04-06T00:11:08;-2.7;70.9
67893;DHT22;54688;52.376;16.744;2023-04-06T00:17:09;-2.7;71
67893;DHT22;54688;52.376;16.744;2023-04-06T00:20:11;-2.7;71
67893;DHT22;54688;52.376;16.744;2023-04-06T00:23:14;-2.8;71.1
67893;DHT22;54688;52.376;16.744;2023-04-06T00:29:27;-2.9;71.2
67893;DHT22;54688;52.376;16.744;2023-04-06T00:32:30;-2.9;71.6
67893;DHT22;54688;52.376;16.744;2023-04-06T00:35:32;-2.9;71.7
67893;DHT22;54688;52.376;16.744;2023-04-06T00:38:34;-2.9;71.9
67893;DHT22;54688;52.376;16.744;2023-04-06T00:41:36;-3;71.5
67893;DHT22;54688;52.376;16.744;2023-04-06T00:44:38;-3;71.4
67893;DHT22;54688;52.376;16.744;2023-04-06T00:47:40;-3;71.4
67893;DHT22;54688;52.376;16.744;2023-04-06T00:50:42;-3.1;71.6
67893;DHT22;54688;52.376;16.744;2023-04-06T00:56:42;-3;72.4
67893;DHT22;54688;52.376;16.744;2023-04-06T00:59:45;-3.1;72.5
67893;DHT22;54688;52.376;16.744;2023-04-06T01:02:47;-3.1;72.1
67893;DHT22;54688;52.376;16.744;2023-04-06T01:05:48;-3.2;71.8
67893;DHT22;54688;52.376;16.744;2023-04-06T01:08:51;-3.2;71.5
67893;DHT22;54688;52.376;16.744;2023-04-06T01:11:52;-3.2;71.6
67893;DHT22;54688;52.376;16.744;2023-04-06T01:14:54;-3.3;71.5
67893;DHT22;54688;52.376;16.744;2023-04-06T01:17:57;-3.3;71.2
67893;DHT22;54688;52.376;16.744;2023-04-06T01:23:59;-3.4;71.4
67893;DHT22;54688;52.376;16.744;2023-04-06T01:27:01;-3.5;71.2
67893;DHT22;54688;52.376;16.744;2023-04-06T01:30:06;-3.6;71
67893;DHT22;54688;52.376;16.744;2023-04-06T01:33:09;-3.6;71.6
67893;DHT22;54688;52.376;16.744;2023-04-06T01:36:11;-3.6;71.7
67893;DHT22;54688;52.376;16.744;2023-04-06T01:39:13;-3.7;71.6
67893;DHT22;54688;52.376;16.744;2023-04-06T01:42:15;-3.6;72.4
67893;DHT22;54688;52.376;16.744;2023-04-06T01:45:17;-3.6;72.8
67893;DHT22;54688;52.376;16.744;2023-04-06T01:48:19;-3.7;72.8
67893;DHT22;54688;52.376;16.744;2023-04-06T01:51:21;-3.7;72.8
67893;DHT22;54688;52.376;16.744;2023-04-06T01:54:23;-3.7;72.8
67893;DHT22;54688;52.376;16.744;2023-04-06T01:57:26;-3.7;73.1
67893;DHT22;54688;52.376;16.744;2023-04-06T02:00:27;-3.7;72.9
67893;DHT22;54688;52.376;16.744;2023-04-06T02:03:29;-3.7;73.2
67893;DHT22;54688;52.376;16.744;2023-04-06T02:09:31;-3.8;72.7
67893;DHT22;54688;52.376;16.744;2023-04-06T02:12:33;-3.8;72.8
67893;DHT22;54688;52.376;16.744;2023-04-06T02:15:35;-3.8;73.2
67893;DHT22;54688;52.376;16.744;2023-04-06T02:18:38;-3.9;73.1
67893;DHT22;54688;52.376;16.744;2023-04-06T02:21:40;-3.9;72.8
67893;DHT22;54688;52.376;16.744;2023-04-06T02:24:42;-4;72.3
67893;DHT22;54688;52.376;16.744;2023-04-06T02:27:44;-4;72.3
67893;DHT22;54688;52.376;16.744;2023-04-06T02:30:46;-4;73
67893;DHT22;54688;52.376;16.744;2023-04-06T02:33:48;-4;73.5
67893;DHT22;54688;52.376;16.744;2023-04-06T02:36:51;-4;73.9
67893;DHT22;54688;52.376;16.744;2023-04-06T02:39:53;-4;73.7
67893;DHT22;54688;52.376;16.744;2023-04-06T02:42:56;-4;73.6
67893;DHT22;54688;52.376;16.744;2023-04-06T02:45:57;-4.1;73.9
67893;DHT22;54688;52.376;16.744;2023-04-06T02:48:59;-4.1;73.6
67893;DHT22;54688;52.376;16.744;2023-04-06T02:55:01;-4.1;73.5
67893;DHT22;54688;52.376;16.744;2023-04-06T02:58:03;-4.1;73.4
67893;DHT22;54688;52.376;16.744;2023-04-06T03:01:05;-4.2;73.4
67893;DHT22;54688;52.376;16.744;2023-04-06T03:04:07;-4.2;73.8
67893;DHT22;54688;52.376;16.744;2023-04-06T03:07:09;-4.2;73.9
67893;DHT22;54688;52.376;16.744;2023-04-06T03:10:12;-4.2;74.1
67893;DHT22;54688;52.376;16.744;2023-04-06T03:13:14;-4.2;74.1
67893;DHT22;54688;52.376;16.744;2023-04-06T03:16:16;-4.3;74
67893;DHT22;54688;52.376;16.744;2023-04-06T03:19:18;-4.3;73.9
67893;DHT22;54688;52.376;16.744;2023-04-06T03:22:21;-4.4;73.8
67893;DHT22;54688;52.376;16.744;2023-04-06T03:25:22;-4.4;73.9
67893;DHT22;54688;52.376;16.744;2023-04-06T03:34:23;-4.5;74.1
67893;DHT22;54688;52.376;16.744;2023-04-06T03:37:27;-4.5;74.2
67893;DHT22;54688;52.376;16.744;2023-04-06T03:40:29;-4.5;74.2
67893;DHT22;54688;52.376;16.744;2023-04-06T03:43:31;-4.5;74.3
67893;DHT22;54688;52.376;16.744;2023-04-06T03:46:34;-4.5;74.9
67893;DHT22;54688;52.376;16.744;2023-04-06T03:49:37;-4.6;75
67893;DHT22;54688;52.376;16.744;2023-04-06T03:52:40;-4.5;74.9
67893;DHT22;54688;52.376;16.744;2023-04-06T03:55:42;-4.5;75.4
67893;DHT22;54688;52.376;16.744;2023-04-06T03:58:44;-4.5;74.8
67893;DHT22;54688;52.376;16.744;2023-04-06T04:01:46;-4.5;75.3
67893;DHT22;54688;52.376;16.744;2023-04-06T04:04:49;-4.5;75.2
67893;DHT22;54688;52.376;16.744;2023-04-06T04:07:51;-4.6;74.9
67893;DHT22;54688;52.376;16.744;2023-04-06T04:10:53;-4.6;74.9
67893;DHT22;54688;52.376;16.744;2023-04-06T04:13:55;-4.7;74.3
67893;DHT22;54688;52.376;16.744;2023-04-06T04:16:57;-4.8;74.4
67893;DHT22;54688;52.376;16.744;2023-04-06T04:20:00;-4.8;74.7
67893;DHT22;54688;52.376;16.744;2023-04-06T04:23:02;-4.8;75
67893;DHT22;54688;52.376;16.744;2023-04-06T04:26:04;-4.9;74.6
67893;DHT22;54688;52.376;16.744;2023-04-06T04:29:07;-4.9;74.4
67893;DHT22;54688;52.376;16.744;2023-04-06T04:32:09;-4.9;75.1
67893;DHT22;54688;52.376;16.744;2023-04-06T04:35:12;-4.9;75.9
67893;DHT22;54688;52.376;16.744;2023-04-06T04:41:13;-4.9;75.4
67893;DHT22;54688;52.376;16.744;2023-04-06T04:44:16;-4.9;74.8
67893;DHT22;54688;52.376;16.744;2023-04-06T04:47:18;-4.9;75
67893;DHT22;54688;52.376;16.744;2023-04-06T04:50:21;-4.9;75.5
67893;DHT22;54688;52.376;16.744;2023-04-06T04:53:23;-4.9;75.6
67893;DHT22;54688;52.376;16.744;2023-04-06T04:56:25;-4.9;75.3
67893;DHT22;54688;52.376;16.744;2023-04-06T04:59:28;-4.9;74.9
67893;DHT22;54688;52.376;16.744;2023-04-06T05:02:30;-4.9;75.2
67893;DHT22;54688;52.376;16.744;2023-04-06T05:05:32;-4.9;75.2
67893;DHT22;54688;52.376;16.744;2023-04-06T05:08:35;-4.9;74.9
67893;DHT22;54688;52.376;16.744;2023-04-06T05:11:37;-4.9;74.7
67893;DHT22;54688;52.376;16.744;2023-04-06T05:23:38;-4.9;74.1
67893;DHT22;54688;52.376;16.744;2023-04-06T05:26:40;-4.8;74.5
67893;DHT22;54688;52.376;16.744;2023-04-06T05:32:41;-4.8;74.4
67893;DHT22;54688;52.376;16.744;2023-04-06T05:35:43;-4.7;74.3
67893;DHT22;54688;52.376;16.744;2023-04-06T05:38:46;-4.7;74.3
67893;DHT22;54688;52.376;16.744;2023-04-06T05:41:48;-4.6;74.3
67893;DHT22;54688;52.376;16.744;2023-04-06T05:44:50;-4.6;74.5
67893;DHT22;54688;52.376;16.744;2023-04-06T05:47:52;-4.5;74.5
67893;DHT22;54688;52.376;16.744;2023-04-06T05:50:55;-4.4;75.2
67893;DHT22;54688;52.376;16.744;2023-04-06T05:53:57;-4.3;75.5
67893;DHT22;54688;52.376;16.744;2023-04-06T05:56:59;-4.2;75.4
67893;DHT22;54688;52.376;16.744;2023-04-06T06:00:07;-4.1;75.5
67893;DHT22;54688;52.376;16.744;2023-04-06T06:03:10;-4;75.4
67893;DHT22;54688;52.376;16.744;2023-04-06T06:06:15;-3.9;75.8
67893;DHT22;54688;52.376;16.744;2023-04-06T06:09:17;-3.8;75.9
67893;DHT22;54688;52.376;16.744;2023-04-06T06:12:19;-3.7;76
67893;DHT22;54688;52.376;16.744;2023-04-06T06:15:21;-3.5;77
67893;DHT22;54688;52.376;16.744;2023-04-06T06:18:24;-3.4;76.5
67893;DHT22;54688;52.376;16.744;2023-04-06T06:21:27;-3.3;76.6
67893;DHT22;54688;52.376;16.744;2023-04-06T06:24:30;-3.1;76.5
67893;DHT22;54688;52.376;16.744;2023-04-06T06:27:32;-3;76.2
67893;DHT22;54688;52.376;16.744;2023-04-06T06:30:34;-3;76.8
67893;DHT22;54688;52.376;16.744;2023-04-06T06:33:36;-2.8;76.7
67893;DHT22;54688;52.376;16.744;2023-04-06T06:36:39;-2.6;77.1
67893;DHT22;54688;52.376;16.744;2023-04-06T06:39:41;-2.4;76.7
67893;DHT22;54688;52.376;16.744;2023-04-06T06:42:44;-2.3;76.6
67893;DHT22;54688;52.376;16.744;2023-04-06T06:45:47;-2.2;75.6
67893;DHT22;54688;52.376;16.744;2023-04-06T06:48:49;-2.1;75
67893;DHT22;54688;52.376;16.744;2023-04-06T06:51:51;-2;75.4
67893;DHT22;54688;52.376;16.744;2023-04-06T06:54:53;-1.8;74.8
67893;DHT22;54688;52.376;16.744;2023-04-06T06:57:56;-1.8;74.7
67893;DHT22;54688;52.376;16.744;2023-04-06T07:00:58;-1.6;74.5
67893;DHT22;54688;52.376;16.744;2023-04-06T07:04:01;-1.6;74
67893;DHT22;54688;52.376;16.744;2023-04-06T07:07:03;-1.5;73.4
67893;DHT22;54688;52.376;16.744;2023-04-06T07:10:06;-1.4;73.3
67893;DHT22;54688;52.376;16.744;2023-04-06T07:13:09;-1.3;73.1
67893;DHT22;54688;52.376;16.744;2023-04-06T07:16:12;-1.1;72.6
67893;DHT22;54688;52.376;16.744;2023-04-06T07:19:14;-1;71.9
67893;DHT22;54688;52.376;16.744;2023-04-06T07:22:16;-0.9;71.5
67893;DHT22;54688;52.376;16.744;2023-04-06T07:25:18;-0.8;71.3
67893;DHT22;54688;52.376;16.744;2023-04-06T07:28:20;-0.7;70.1
67893;DHT22;54688;52.376;16.744;2023-04-06T07:31:22;-0.5;69.2
67893;DHT22;54688;52.376;16.744;2023-04-06T07:34:24;-0.4;68.5
67893;DHT22;54688;52.376;16.744;2023-04-06T07:37:26;-0.4;67.6
67893;DHT22;54688;52.376;16.744;2023-04-06T07:40:29;-0.2;67.4
67893;DHT22;54688;52.376;16.744;2023-04-06T07:43:31;-0.2;66.5
67893;DHT22;54688;52.376;16.744;2023-04-06T07:46:34;-0.1;65.3
67893;DHT22;54688;52.376;16.744;2023-04-06T07:49:37;0.1;64.9
67893;DHT22;54688;52.376;16.744;2023-04-06T07:52:39;0.1;64.6
67893;DHT22;54688;52.376;16.744;2023-04-06T07:55:41;0.3;64.2
67893;DHT22;54688;52.376;16.744;2023-04-06T07:58:44;0.3;63.5
67893;DHT22;54688;52.376;16.744;2023-04-06T08:01:46;0.4;63.7
67893;DHT22;54688;52.376;16.744;2023-04-06T08:04:48;0.4;63.4
67893;DHT22;54688;52.376;16.744;2023-04-06T08:07:50;0.4;63.2
67893;DHT22;54688;52.376;16.744;2023-04-06T08:10:52;0.5;62.4
67893;DHT22;54688;52.376;16.744;2023-04-06T08:13:55;0.6;62
67893;DHT22;54688;52.376;16.744;2023-04-06T08:16:57;0.6;61.7
67893;DHT22;54688;52.376;16.744;2023-04-06T08:20:00;0.7;61.2
67893;DHT22;54688;52.376;16.744;2023-04-06T08:23:03;0.8;60.1
67893;DHT22;54688;52.376;16.744;2023-04-06T08:26:04;0.9;59.7
67893;DHT22;54688;52.376;16.744;2023-04-06T08:29:07;1;59.5
67893;DHT22;54688;52.376;16.744;2023-04-06T08:32:09;1.1;59.3
67893;DHT22;54688;52.376;16.744;2023-04-06T08:35:11;1.2;60.2
67893;DHT22;54688;52.376;16.744;2023-04-06T08:38:13;1.3;58.8
67893;DHT22;54688;52.376;16.744;2023-04-06T08:41:16;1.4;58.8
67893;DHT22;54688;52.376;16.744;2023-04-06T08:44:18;1.4;59.4
67893;DHT22;54688;52.376;16.744;2023-04-06T08:47:21;1.4;59.9
67893;DHT22;54688;52.376;16.744;2023-04-06T08:50:24;1.4;60.1
67893;DHT22;54688;52.376;16.744;2023-04-06T08:53:27;1.5;57.3
67893;DHT22;54688;52.376;16.744;2023-04-06T08:56:28;1.6;56.8
67893;DHT22;54688;52.376;16.744;2023-04-06T08:59:31;1.7;56.7
67893;DHT22;54688;52.376;16.744;2023-04-06T09:02:36;1.8;57.4
67893;DHT22;54688;52.376;16.744;2023-04-06T09:05:40;1.9;57.3
67893;DHT22;54688;52.376;16.744;2023-04-06T09:08:43;2.1;56.1
67893;DHT22;54688;52.376;16.744;2023-04-06T09:11:47;2.1;54.7
67893;DHT22;54688;52.376;16.744;2023-04-06T09:14:50;2.3;54
67893;DHT22;54688;52.376;16.744;2023-04-06T09:17:53;2.4;54
67893;DHT22;54688;52.376;16.744;2023-04-06T09:20:56;2.4;53.2
67893;DHT22;54688;52.376;16.744;2023-04-06T09:24:00;2.6;53.7
67893;DHT22;54688;52.376;16.744;2023-04-06T09:27:04;2.7;53.5
67893;DHT22;54688;52.376;16.744;2023-04-06T09:30:08;2.9;53.6
67893;DHT22;54688;52.376;16.744;2023-04-06T09:33:11;3.1;53
67893;DHT22;54688;52.376;16.744;2023-04-06T09:36:13;3.2;52.5
67893;DHT22;54688;52.376;16.744;2023-04-06T09:39:19;3.3;51.5
67893;DHT22;54688;52.376;16.744;2023-04-06T09:42:23;3.4;50
67893;DHT22;54688;52.376;16.744;2023-04-06T09:45:26;3.5;48.2
67893;DHT22;54688;52.376;16.744;2023-04-06T09:48:31;3.6;48.7
67893;DHT22;54688;52.376;16.744;2023-04-06T09:51:36;3.7;47.8
67893;DHT22;54688;52.376;16.744;2023-04-06T09:54:42;3.8;47.6
67893;DHT22;54688;52.376;16.744;2023-04-06T09:57:48;3.9;46.5
67893;DHT22;54688;52.376;16.744;2023-04-06T10:00:55;4;46.6
67893;DHT22;54688;52.376;16.744;2023-04-06T10:04:07;4.1;46.5
67893;DHT22;54688;52.376;16.744;2023-04-06T10:07:18;4.1;47.6
67893;DHT22;54688;52.376;16.744;2023-04-06T10:10:20;4.2;47
67893;DHT22;54688;52.376;16.744;2023-04-06T10:13:22;4.3;47
67893;DHT22;54688;52.376;16.744;2023-04-06T10:16:25;4.4;47.6
67893;DHT22;54688;52.376;16.744;2023-04-06T10:19:29;4.4;47.5
67893;DHT22;54688;52.376;16.744;2023-04-06T10:22:50;4.5;46.7
67893;DHT22;54688;52.376;16.744;2023-04-06T10:25:56;4.6;46.7
67893;DHT22;54688;52.376;16.744;2023-04-06T10:29:02;4.7;45.9
67893;DHT22;54688;52.376;16.744;2023-04-06T10:32:04;4.8;44.6
67893;DHT22;54688;52.376;16.744;2023-04-06T10:35:08;4.8;43.8
67893;DHT22;54688;52.376;16.744;2023-04-06T10:38:11;4.9;45.1
67893;DHT22;54688;52.376;16.744;2023-04-06T10:41:13;5;46.1
67893;DHT22;54688;52.376;16.744;2023-04-06T10:44:19;5.1;45.8
67893;DHT22;54688;52.376;16.744;2023-04-06T10:47:22;5.3;46
67893;DHT22;54688;52.376;16.744;2023-04-06T10:50:24;5.4;45.2
67893;DHT22;54688;52.376;16.744;2023-04-06T10:53:27;5.5;41.9
67893;DHT22;54688;52.376;16.744;2023-04-06T10:56:29;5.4;41.9
67893;DHT22;54688;52.376;16.744;2023-04-06T10:59:32;5.5;42.1
67893;DHT22;54688;52.376;16.744;2023-04-06T11:02:34;5.5;43.2
67893;DHT22;54688;52.376;16.744;2023-04-06T11:05:37;5.5;41.9
67893;DHT22;54688;52.376;16.744;2023-04-06T11:08:39;5.6;41.6
67893;DHT22;54688;52.376;16.744;2023-04-06T11:11:41;5.7;41.2
67893;DHT22;54688;52.376;16.744;2023-04-06T11:14:51;5.7;40.8
67893;DHT22;54688;52.376;16.744;2023-04-06T11:17:54;5.8;41.8
67893;DHT22;54688;52.376;16.744;2023-04-06T11:20:56;5.9;41.6
67893;DHT22;54688;52.376;16.744;2023-04-06T11:24:15;6;40.9
67893;DHT22;54688;52.376;16.744;2023-04-06T11:27:18;6.1;40.3
67893;DHT22;54688;52.376;16.744;2023-04-06T11:30:21;6.2;40.9
67893;DHT22;54688;52.376;16.744;2023-04-06T11:33:23;6.2;39.6
67893;DHT22;54688;52.376;16.744;2023-04-06T11:36:26;6.3;39.8
67893;DHT22;54688;52.376;16.744;2023-04-06T11:39:31;6.4;39.5
67893;DHT22;54688;52.376;16.744;2023-04-06T11:42:34;6.5;39.9
67893;DHT22;54688;52.376;16.744;2023-04-06T11:45:39;6.5;40.3
67893;DHT22;54688;52.376;16.744;2023-04-06T11:48:44;6.6;40.1
67893;DHT22;54688;52.376;16.744;2023-04-06T11:51:46;6.7;38.8
67893;DHT22;54688;52.376;16.744;2023-04-06T11:54:48;6.8;38
67893;DHT22;54688;52.376;16.744;2023-04-06T11:57:52;6.9;37.8
67893;DHT22;54688;52.376;16.744;2023-04-06T12:01:02;7;39.1
67893;DHT22;54688;52.376;16.744;2023-04-06T12:04:05;7.1;37.8
67893;DHT22;54688;52.376;16.744;2023-04-06T12:07:08;7.2;38.8
67893;DHT22;54688;52.376;16.744;2023-04-06T12:10:10;7.3;38.1
67893;DHT22;54688;52.376;16.744;2023-04-06T12:13:12;7.4;38
67893;DHT22;54688;52.376;16.744;2023-04-06T12:16:14;7.4;37.3
67893;DHT22;54688;52.376;16.744;2023-04-06T12:19:16;7.5;37.7
67893;DHT22;54688;52.376;16.744;2023-04-06T12:22:18;7.6;37.6
67893;DHT22;54688;52.376;16.744;2023-04-06T12:25:20;7.8;37.5
67893;DHT22;54688;52.376;16.744;2023-04-06T12:28:23;7.8;38
67893;DHT22;54688;52.376;16.744;2023-04-06T12:31:25;8.1;37.4
67893;DHT22;54688;52.376;16.744;2023-04-06T12:34:28;8.3;37.2
67893;DHT22;54688;52.376;16.744;2023-04-06T12:37:30;8.6;36
67893;DHT22;54688;52.376;16.744;2023-04-06T12:40:35;8.8;36.2
67893;DHT22;54688;52.376;16.744;2023-04-06T12:43:38;8.9;36.2
67893;DHT22;54688;52.376;16.744;2023-04-06T12:46:42;9.1;35.2
67893;DHT22;54688;52.376;16.744;2023-04-06T12:49:44;9.3;34.8
67893;DHT22;54688;52.376;16.744;2023-04-06T12:52:47;9.5;33.5
67893;DHT22;54688;52.376;16.744;2023-04-06T12:55:48;9.6;34.5
67893;DHT22;54688;52.376;16.744;2023-04-06T12:58:51;9.8;34.6
67893;DHT22;54688;52.376;16.744;2023-04-06T13:01:54;10;32.5
67893;DHT22;54688;52.376;16.744;2023-04-06T13:04:55;10.1;31.8
67893;DHT22;54688;52.376;16.744;2023-04-06T13:07:58;10.2;33.3
67893;DHT22;54688;52.376;16.744;2023-04-06T13:11:00;10.4;32.3
67893;DHT22;54688;52.376;16.744;2023-04-06T13:14:02;10.5;33
67893;DHT22;54688;52.376;16.744;2023-04-06T13:17:05;10.7;32.6
67893;DHT22;54688;52.376;16.744;2023-04-06T13:20:09;10.8;32.7
67893;DHT22;54688;52.376;16.744;2023-04-06T13:23:11;10.9;33.5
67893;DHT22;54688;52.376;16.744;2023-04-06T13:26:13;11;31.3
67893;DHT22;54688;52.376;16.744;2023-04-06T13:29:15;10.9;31.8
67893;DHT22;54688;52.376;16.744;2023-04-06T13:32:18;11;32
67893;DHT22;54688;52.376;16.744;2023-04-06T13:35:20;11;32.5
67893;DHT22;54688;52.376;16.744;2023-04-06T13:38:22;11.2;32
67893;DHT22;54688;52.376;16.744;2023-04-06T13:41:25;11.2;31.8
67893;DHT22;54688;52.376;16.744;2023-04-06T13:44:28;11.3;32.7
67893;DHT22;54688;52.376;16.744;2023-04-06T13:47:30;11.6;32.8
67893;DHT22;54688;52.376;16.744;2023-04-06T13:50:32;11.8;32.3
67893;DHT22;54688;52.376;16.744;2023-04-06T13:53:35;12.1;31.6
67893;DHT22;54688;52.376;16.744;2023-04-06T13:56:37;12.3;31.5
67893;DHT22;54688;52.376;16.744;2023-04-06T13:59:39;12.6;30.2
67893;DHT22;54688;52.376;16.744;2023-04-06T14:02:41;12.6;30.5
67893;DHT22;54688;52.376;16.744;2023-04-06T14:05:44;12.6;30.4
67893;DHT22;54688;52.376;16.744;2023-04-06T14:08:46;12.7;29.9
67893;DHT22;54688;52.376;16.744;2023-04-06T14:11:49;12.5;29.8
67893;DHT22;54688;52.376;16.744;2023-04-06T14:14:51;12.5;30.2
67893;DHT22;54688;52.376;16.744;2023-04-06T14:17:53;12.6;30.8
67893;DHT22;54688;52.376;16.744;2023-04-06T14:20:56;12.8;30.9
67893;DHT22;54688;52.376;16.744;2023-04-06T14:23:59;12.9;29.7
67893;DHT22;54688;52.376;16.744;2023-04-06T14:27:01;12.9;29.4
67893;DHT22;54688;52.376;16.744;2023-04-06T14:30:06;12.7;29.6
67893;DHT22;54688;52.376;16.744;2023-04-06T14:33:09;12.5;29.6
67893;DHT22;54688;52.376;16.744;2023-04-06T14:36:11;12.3;30.4
67893;DHT22;54688;52.376;16.744;2023-04-06T14:39:14;12.3;30
67893;DHT22;54688;52.376;16.744;2023-04-06T14:42:16;12.3;30.7
67893;DHT22;54688;52.376;16.744;2023-04-06T14:45:18;12.4;31.1
67893;DHT22;54688;52.376;16.744;2023-04-06T14:48:20;12.7;30
67893;DHT22;54688;52.376;16.744;2023-04-06T14:51:23;12.6;30.2
67893;DHT22;54688;52.376;16.744;2023-04-06T14:54:26;12.6;30.5
67893;DHT22;54688;52.376;16.744;2023-04-06T14:57:28;12.7;30.1
67893;DHT22;54688;52.376;16.744;2023-04-06T15:00:30;12.8;30.2
67893;DHT22;54688;52.376;16.744;2023-04-06T15:03:32;12.9;30
67893;DHT22;54688;52.376;16.744;2023-04-06T15:06:34;12.9;30.3
67893;DHT22;54688;52.376;16.744;2023-04-06T15:09:36;13;30
67893;DHT22;54688;52.376;16.744;2023-04-06T15:12:39;13.1;30.3
67893;DHT22;54688;52.376;16.744;2023-04-06T15:15:41;13;30.1
67893;DHT22;54688;52.376;16.744;2023-04-06T15:18:44;12.9;30.1
67893;DHT22;54688;52.376;16.744;2023-04-06T15:24:44;12.3;30.9
67893;DHT22;54688;52.376;16.744;2023-04-06T15:30:44;12.4;30.9
67893;DHT22;54688;52.376;16.744;2023-04-06T15:33:46;12.5;30.6
67893;DHT22;54688;52.376;16.744;2023-04-06T15:36:47;12.9;30.4
67893;DHT22;54688;52.376;16.744;2023-04-06T15:39:50;13.2;30
67893;DHT22;54688;52.376;16.744;2023-04-06T15:42:52;13.7;29.7
67893;DHT22;54688;52.376;16.744;2023-04-06T15:45:53;13.9;29.1
67893;DHT22;54688;52.376;16.744;2023-04-06T15:48:57;14.1;29.6
67893;DHT22;54688;52.376;16.744;2023-04-06T15:51:59;14.4;29.1
67893;DHT22;54688;52.376;16.744;2023-04-06T15:55:03;14.5;28.7
67893;DHT22;54688;52.376;16.744;2023-04-06T15:58:07;14.5;28
67893;DHT22;54688;52.376;16.744;2023-04-06T16:01:10;14.5;28.1
67893;DHT22;54688;52.376;16.744;2023-04-06T16:04:13;14.5;27.7
67893;DHT22;54688;52.376;16.744;2023-04-06T16:07:15;14.5;27.8
67893;DHT22;54688;52.376;16.744;2023-04-06T16:10:18;14.4;28.2
67893;DHT22;54688;52.376;16.744;2023-04-06T16:13:21;14.3;28.1
67893;DHT22;54688;52.376;16.744;2023-04-06T16:16:24;14.3;28.1
67893;DHT22;54688;52.376;16.744;2023-04-06T16:19:26;14.1;27.8
67893;DHT22;54688;52.376;16.744;2023-04-06T16:25:26;13.6;28.8
67893;DHT22;54688;52.376;16.744;2023-04-06T16:28:28;13.5;29.8
67893;DHT22;54688;52.376;16.744;2023-04-06T16:31:32;13.6;29
67893;DHT22;54688;52.376;16.744;2023-04-06T16:34:33;13.5;29.5
67893;DHT22;54688;52.376;16.744;2023-04-06T16:37:36;13.5;29.7
67893;DHT22;54688;52.376;16.744;2023-04-06T16:40:38;13.4;29.4
67893;DHT22;54688;52.376;16.744;2023-04-06T16:43:40;13.4;29.6
67893;DHT22;54688;52.376;16.744;2023-04-06T16:46:42;13.3;30
67893;DHT22;54688;52.376;16.744;2023-04-06T16:49:45;13;29.8
67893;DHT22;54688;52.376;16.744;2023-04-06T16:52:47;12.8;30.1
67893;DHT22;54688;52.376;16.744;2023-04-06T16:55:48;12.6;30.7
67893;DHT22;54688;52.376;16.744;2023-04-06T16:58:50;12.2;30.9
67893;DHT22;54688;52.376;16.744;2023-04-06T17:01:53;11.8;31.3
67893;DHT22;54688;52.376;16.744;2023-04-06T17:04:55;11.4;32.2
67893;DHT22;54688;52.376;16.744;2023-04-06T17:07:57;11.1;32.1
67893;DHT22;54688;52.376;16.744;2023-04-06T17:10:59;10.8;33
67893;DHT22;54688;52.376;16.744;2023-04-06T17:14:01;10.6;33.3
67893;DHT22;54688;52.376;16.744;2023-04-06T17:17:04;10.3;33.5
67893;DHT22;54688;52.376;16.744;2023-04-06T17:20:07;10.1;34.1
67893;DHT22;54688;52.376;16.744;2023-04-06T17:23:09;9.9;35
67893;DHT22;54688;52.376;16.744;2023-04-06T17:26:11;9.7;35.5
67893;DHT22;54688;52.376;16.744;2023-04-06T17:29:14;9.6;36.1
67893;DHT22;54688;52.376;16.744;2023-04-06T17:32:16;9.4;36
67893;DHT22;54688;52.376;16.744;2023-04-06T17:35:20;9.2;35.9
67893;DHT22;54688;52.376;16.744;2023-04-06T17:38:22;9;37.2
67893;DHT22;54688;52.376;16.744;2023-04-06T17:41:24;8.9;38.1
67893;DHT22;54688;52.376;16.744;2023-04-06T17:44:26;8.7;38.2
67893;DHT22;54688;52.376;16.744;2023-04-06T17:47:29;8.6;38.5
67893;DHT22;54688;52.376;16.744;2023-04-06T17:50:32;8.4;38.4
67893;DHT22;54688;52.376;16.744;2023-04-06T17:53:37;8.2;39.2
67893;DHT22;54688;52.376;16.744;2023-04-06T17:56:40;8;39.3
67893;DHT22;54688;52.376;16.744;2023-04-06T17:59:42;7.8;39.7
67893;DHT22;54688;52.376;16.744;2023-04-06T18:02:44;7.7;40.9
67893;DHT22;54688;52.376;16.744;2023-04-06T18:05:47;7.5;40.7
67893;DHT22;54688;52.376;16.744;2023-04-06T18:08:49;7.4;40.7
67893;DHT22;54688;52.376;16.744;2023-04-06T18:11:52;7.3;41
67893;DHT22;54688;52.376;16.744;2023-04-06T18:14:55;7.2;41.5
67893;DHT22;54688;52.376;16.744;2023-04-06T18:17:57;7.1;41.4
67893;DHT22;54688;52.376;16.744;2023-04-06T18:21:01;7;41.6
67893;DHT22;54688;52.376;16.744;2023-04-06T18:24:04;6.8;42.1
67893;DHT22;54688;52.376;16.744;2023-04-06T18:27:07;6.7;42.1
67893;DHT22;54688;52.376;16.744;2023-04-06T18:30:09;6.6;42.6
67893;DHT22;54688;52.376;16.744;2023-04-06T18:33:13;6.5;43.2
67893;DHT22;54688;52.376;16.744;2023-04-06T18:36:15;6.3;43.6
67893;DHT22;54688;52.376;16.744;2023-04-06T18:39:17;6.2;44
67893;DHT22;54688;52.376;16.744;2023-04-06T18:42:19;6.1;44.4
67893;DHT22;54688;52.376;16.744;2023-04-06T18:45:22;6;44.8
67893;DHT22;54688;52.376;16.744;2023-04-06T18:48:23;5.9;45
67893;DHT22;54688;52.376;16.744;2023-04-06T18:51:27;5.8;46.1
67893;DHT22;54688;52.376;16.744;2023-04-06T18:54:29;5.7;45.9
67893;DHT22;54688;52.376;16.744;2023-04-06T18:57:31;5.6;46.2
67893;DHT22;54688;52.376;16.744;2023-04-06T19:00:33;5.5;46.6
67893;DHT22;54688;52.376;16.744;2023-04-06T19:03:35;5.4;46.8
67893;DHT22;54688;52.376;16.744;2023-04-06T19:06:38;5.3;47.8
67893;DHT22;54688;52.376;16.744;2023-04-06T19:12:38;5.3;47.9
67893;DHT22;54688;52.376;16.744;2023-04-06T19:15:40;5.3;48
67893;DHT22;54688;52.376;16.744;2023-04-06T19:18:42;5.3;47.8
67893;DHT22;54688;52.376;16.744;2023-04-06T19:21:44;5.3;47.5
67893;DHT22;54688;52.376;16.744;2023-04-06T19:24:47;5.3;48
67893;DHT22;54688;52.376;16.744;2023-04-06T19:27:50;5.3;47.7
67893;DHT22;54688;52.376;16.744;2023-04-06T19:30:51;5.3;47.6
67893;DHT22;54688;52.376;16.744;2023-04-06T19:33:54;5.4;48.1
67893;DHT22;54688;52.376;16.744;2023-04-06T19:36:56;5.4;48.2
67893;DHT22;54688;52.376;16.744;2023-04-06T19:39:58;5.4;48.2
67893;DHT22;54688;52.376;16.744;2023-04-06T19:43:00;5.4;47.8
67893;DHT22;54688;52.376;16.744;2023-04-06T19:46:03;5.3;47.3
67893;DHT22;54688;52.376;16.744;2023-04-06T19:49:05;5.3;47.8
67893;DHT22;54688;52.376;16.744;2023-04-06T19:52:08;5.3;48.3
67893;DHT22;54688;52.376;16.744;2023-04-06T19:55:10;5.4;48.4
67893;DHT22;54688;52.376;16.744;2023-04-06T19:58:13;5.4;48.6
67893;DHT22;54688;52.376;16.744;2023-04-06T20:04:14;5.4;48.1
67893;DHT22;54688;52.376;16.744;2023-04-06T20:07:16;5.4;47.3
67893;DHT22;54688;52.376;16.744;2023-04-06T20:10:19;5.4;47.5
67893;DHT22;54688;52.376;16.744;2023-04-06T20:13:21;5.5;47.6
67893;DHT22;54688;52.376;16.744;2023-04-06T20:16:23;5.5;47.5
67893;DHT22;54688;52.376;16.744;2023-04-06T20:19:27;5.5;47.3
67893;DHT22;54688;52.376;16.744;2023-04-06T20:22:29;5.6;47.4
67893;DHT22;54688;52.376;16.744;2023-04-06T20:25:31;5.6;47.9
67893;DHT22;54688;52.376;16.744;2023-04-06T20:28:33;5.6;47.4
67893;DHT22;54688;52.376;16.744;2023-04-06T20:31:35;5.6;47.2
67893;DHT22;54688;52.376;16.744;2023-04-06T20:34:37;5.6;47.3
67893;DHT22;54688;52.376;16.744;2023-04-06T20:37:40;5.6;47.3
67893;DHT22;54688;52.376;16.744;2023-04-06T20:40:42;5.7;47.3
67893;DHT22;54688;52.376;16.744;2023-04-06T20:43:45;5.6;47.5